sensor_id;sensor_type;location;lat;lon;timestamp;temperature;humidity
25839;DHT22;13669;50.186;27.062;2022-11-02T00:02:18;8.90;99.90
25839;DHT22;13669;50.186;27.062;2022-11-02T00:04:45;8.90;99.90
25839;DHT22;13669;50.186;27.062;2022-11-02T00:07:12;8.90;99.90
25839;DHT22;13669;50.186;27.062;2022-11-02T00:09:40;8.90;99.90
25839;DHT22;13669;50.186;27.062;2022-11-02T00:12:07;8.80;99.90
25839;DHT22;13669;50.186;27.062;2022-11-02T00:14:34;8.80;99.90
25839;DHT22;13669;50.186;27.062;2022-11-02T00:17:02;8.80;99.90
25839;DHT22;13669;50.186;27.062;2022-11-02T00:19:29;8.80;99.90
25839;DHT22;13669;50.186;27.062;2022-11-02T00:21:57;8.80;99.90
25839;DHT22;13669;50.186;27.062;2022-11-02T00:24:25;8.80;99.90
25839;DHT22;13669;50.186;27.062;2022-11-02T00:26:53;8.70;99.90
25839;DHT22;13669;50.186;27.062;2022-11-02T00:29:21;8.70;99.90
25839;DHT22;13669;50.186;27.062;2022-11-02T00:31:50;8.70;99.90
25839;DHT22;13669;50.186;27.062;2022-11-02T00:34:17;8.70;99.90
25839;DHT22;13669;50.186;27.062;2022-11-02T00:36:45;8.70;99.90
25839;DHT22;13669;50.186;27.062;2022-11-02T00:39:19;8.60;99.90
25839;DHT22;13669;50.186;27.062;2022-11-02T00:41:46;8.60;99.90
25839;DHT22;13669;50.186;27.062;2022-11-02T00:44:13;8.60;99.90
25839;DHT22;13669;50.186;27.062;2022-11-02T00:46:41;8.60;99.90
25839;DHT22;13669;50.186;27.062;2022-11-02T00:49:08;8.70;99.90
25839;DHT22;13669;50.186;27.062;2022-11-02T00:51:36;8.70;99.90
25839;DHT22;13669;50.186;27.062;2022-11-02T00:54:03;8.80;99.90
25839;DHT22;13669;50.186;27.062;2022-11-02T00:56:31;8.80;99.90
25839;DHT22;13669;50.186;27.062;2022-11-02T00:58:58;8.80;99.90
25839;DHT22;13669;50.186;27.062;2022-11-02T01:01:25;8.80;99.90
25839;DHT22;13669;50.186;27.062;2022-11-02T01:03:55;8.80;99.90
25839;DHT22;13669;50.186;27.062;2022-11-02T01:06:23;8.90;99.90
25839;DHT22;13669;50.186;27.062;2022-11-02T01:08:50;8.90;99.90
25839;DHT22;13669;50.186;27.062;2022-11-02T01:11:20;8.90;99.90
25839;DHT22;13669;50.186;27.062;2022-11-02T01:13:51;9.00;99.90
25839;DHT22;13669;50.186;27.062;2022-11-02T01:16:19;9.10;99.90
25839;DHT22;13669;50.186;27.062;2022-11-02T01:18:52;9.00;99.90
25839;DHT22;13669;50.186;27.062;2022-11-02T01:21:21;9.10;99.90
25839;DHT22;13669;50.186;27.062;2022-11-02T01:23:49;9.10;99.90
25839;DHT22;13669;50.186;27.062;2022-11-02T01:26:17;9.20;99.90
25839;DHT22;13669;50.186;27.062;2022-11-02T01:28:44;9.20;99.90
25839;DHT22;13669;50.186;27.062;2022-11-02T01:31:12;9.30;99.90
25839;DHT22;13669;50.186;27.062;2022-11-02T01:33:43;9.30;99.90
25839;DHT22;13669;50.186;27.062;2022-11-02T01:36:13;9.40;99.90
25839;DHT22;13669;50.186;27.062;2022-11-02T01:38:41;9.40;99.90
25839;DHT22;13669;50.186;27.062;2022-11-02T01:41:10;9.50;99.90
25839;DHT22;13669;50.186;27.062;2022-11-02T01:43:43;9.50;99.90
25839;DHT22;13669;50.186;27.062;2022-11-02T01:46:18;9.60;99.90
25839;DHT22;13669;50.186;27.062;2022-11-02T01:48:57;9.60;99.90
25839;DHT22;13669;50.186;27.062;2022-11-02T01:51:35;9.70;99.90
25839;DHT22;13669;50.186;27.062;2022-11-02T01:54:25;9.70;99.90
25839;DHT22;13669;50.186;27.062;2022-11-02T01:56:59;9.70;99.90
25839;DHT22;13669;50.186;27.062;2022-11-02T01:59:32;9.70;99.90
25839;DHT22;13669;50.186;27.062;2022-11-02T02:02:02;9.70;99.90
25839;DHT22;13669;50.186;27.062;2022-11-02T02:04:32;9.70;99.90
25839;DHT22;13669;50.186;27.062;2022-11-02T02:07:00;9.80;99.90
25839;DHT22;13669;50.186;27.062;2022-11-02T02:09:27;9.80;99.90
25839;DHT22;13669;50.186;27.062;2022-11-02T02:11:55;9.80;99.90
25839;DHT22;13669;50.186;27.062;2022-11-02T02:14:23;9.80;99.90
25839;DHT22;13669;50.186;27.062;2022-11-02T02:20:01;9.80;99.90
25839;DHT22;13669;50.186;27.062;2022-11-02T02:31:01;9.90;99.90
25839;DHT22;13669;50.186;27.062;2022-11-02T02:33:39;10.00;99.90
25839;DHT22;13669;50.186;27.062;2022-11-02T02:36:19;10.00;99.90
25839;DHT22;13669;50.186;27.062;2022-11-02T02:41:38;10.00;99.90
25839;DHT22;13669;50.186;27.062;2022-11-02T02:44:13;10.00;99.90
25839;DHT22;13669;50.186;27.062;2022-11-02T02:50:01;10.00;99.90
25839;DHT22;13669;50.186;27.062;2022-11-02T02:52:31;10.00;99.90
25839;DHT22;13669;50.186;27.062;2022-11-02T02:55:03;10.00;99.90
25839;DHT22;13669;50.186;27.062;2022-11-02T02:57:32;10.00;99.90
25839;DHT22;13669;50.186;27.062;2022-11-02T03:00:00;10.10;99.90
25839;DHT22;13669;50.186;27.062;2022-11-02T03:02:36;10.10;99.90
25839;DHT22;13669;50.186;27.062;2022-11-02T03:05:27;10.10;99.90
25839;DHT22;13669;50.186;27.062;2022-11-02T03:07:59;10.10;99.90
25839;DHT22;13669;50.186;27.062;2022-11-02T03:10:49;10.10;99.90
25839;DHT22;13669;50.186;27.062;2022-11-02T03:13:28;10.10;99.90
25839;DHT22;13669;50.186;27.062;2022-11-02T03:16:19;10.10;99.90
25839;DHT22;13669;50.186;27.062;2022-11-02T03:22:01;10.10;99.90
25839;DHT22;13669;50.186;27.062;2022-11-02T03:27:34;10.20;99.90
25839;DHT22;13669;50.186;27.062;2022-11-02T03:30:16;10.10;99.90
25839;DHT22;13669;50.186;27.062;2022-11-02T03:33:00;10.10;99.90
25839;DHT22;13669;50.186;27.062;2022-11-02T03:38:02;10.10;99.90
25839;DHT22;13669;50.186;27.062;2022-11-02T03:40:34;10.20;99.90
25839;DHT22;13669;50.186;27.062;2022-11-02T03:43:04;10.20;99.90
25839;DHT22;13669;50.186;27.062;2022-11-02T03:45:39;10.10;99.90
25839;DHT22;13669;50.186;27.062;2022-11-02T03:48:10;10.20;99.90
25839;DHT22;13669;50.186;27.062;2022-11-02T03:50:43;10.20;99.90
25839;DHT22;13669;50.186;27.062;2022-11-02T03:53:17;10.20;99.90
25839;DHT22;13669;50.186;27.062;2022-11-02T03:56:01;10.20;99.90
25839;DHT22;13669;50.186;27.062;2022-11-02T03:58:30;10.20;99.90
25839;DHT22;13669;50.186;27.062;2022-11-02T04:01:02;10.20;99.90
25839;DHT22;13669;50.186;27.062;2022-11-02T04:03:30;10.20;99.90
25839;DHT22;13669;50.186;27.062;2022-11-02T04:05:59;10.20;99.90
25839;DHT22;13669;50.186;27.062;2022-11-02T04:08:34;10.20;99.90
25839;DHT22;13669;50.186;27.062;2022-11-02T04:11:05;10.10;99.90
25839;DHT22;13669;50.186;27.062;2022-11-02T04:13:51;10.20;99.90
25839;DHT22;13669;50.186;27.062;2022-11-02T04:16:37;10.10;99.90
25839;DHT22;13669;50.186;27.062;2022-11-02T04:19:04;10.20;99.90
25839;DHT22;13669;50.186;27.062;2022-11-02T04:21:50;10.10;99.90
25839;DHT22;13669;50.186;27.062;2022-11-02T04:24:37;10.10;99.90
25839;DHT22;13669;50.186;27.062;2022-11-02T04:27:23;10.10;99.90
25839;DHT22;13669;50.186;27.062;2022-11-02T04:29:50;10.10;99.90
25839;DHT22;13669;50.186;27.062;2022-11-02T04:32:18;10.10;99.90
25839;DHT22;13669;50.186;27.062;2022-11-02T04:35:06;10.10;99.90
25839;DHT22;13669;50.186;27.062;2022-11-02T04:37:41;10.10;99.90
25839;DHT22;13669;50.186;27.062;2022-11-02T04:40:28;10.10;99.90
25839;DHT22;13669;50.186;27.062;2022-11-02T04:42:55;10.10;99.90
25839;DHT22;13669;50.186;27.062;2022-11-02T04:45:23;10.10;99.90
25839;DHT22;13669;50.186;27.062;2022-11-02T04:47:50;10.00;99.90
25839;DHT22;13669;50.186;27.062;2022-11-02T04:50:17;10.10;99.90
25839;DHT22;13669;50.186;27.062;2022-11-02T04:52:45;10.00;99.90
25839;DHT22;13669;50.186;27.062;2022-11-02T04:55:12;10.00;99.90
25839;DHT22;13669;50.186;27.062;2022-11-02T04:57:43;10.00;99.90
25839;DHT22;13669;50.186;27.062;2022-11-02T05:00:12;10.00;99.90
25839;DHT22;13669;50.186;27.062;2022-11-02T05:02:39;10.00;99.90
25839;DHT22;13669;50.186;27.062;2022-11-02T05:05:07;10.00;99.90
25839;DHT22;13669;50.186;27.062;2022-11-02T05:07:34;10.00;99.90
25839;DHT22;13669;50.186;27.062;2022-11-02T05:10:02;10.00;99.90
25839;DHT22;13669;50.186;27.062;2022-11-02T05:12:29;10.00;99.90
25839;DHT22;13669;50.186;27.062;2022-11-02T05:14:57;10.00;99.90
25839;DHT22;13669;50.186;27.062;2022-11-02T05:17:24;10.00;99.90
25839;DHT22;13669;50.186;27.062;2022-11-02T05:19:52;9.90;99.90
25839;DHT22;13669;50.186;27.062;2022-11-02T05:22:19;9.90;99.90
25839;DHT22;13669;50.186;27.062;2022-11-02T05:24:47;10.00;99.90
25839;DHT22;13669;50.186;27.062;2022-11-02T05:27:15;10.00;99.90
25839;DHT22;13669;50.186;27.062;2022-11-02T05:29:42;9.90;99.90
25839;DHT22;13669;50.186;27.062;2022-11-02T05:32:09;9.90;99.90
25839;DHT22;13669;50.186;27.062;2022-11-02T05:34:37;9.90;99.90
25839;DHT22;13669;50.186;27.062;2022-11-02T05:37:04;9.90;99.90
25839;DHT22;13669;50.186;27.062;2022-11-02T05:39:32;9.90;99.90
25839;DHT22;13669;50.186;27.062;2022-11-02T05:41:59;9.90;99.90
25839;DHT22;13669;50.186;27.062;2022-11-02T05:44:27;10.00;99.90
25839;DHT22;13669;50.186;27.062;2022-11-02T05:46:54;10.00;99.90
25839;DHT22;13669;50.186;27.062;2022-11-02T05:49:21;9.90;99.90
25839;DHT22;13669;50.186;27.062;2022-11-02T05:51:49;10.00;99.90
25839;DHT22;13669;50.186;27.062;2022-11-02T05:54:17;10.00;99.90
25839;DHT22;13669;50.186;27.062;2022-11-02T05:56:45;10.00;99.90
25839;DHT22;13669;50.186;27.062;2022-11-02T05:59:12;10.00;99.90
25839;DHT22;13669;50.186;27.062;2022-11-02T06:01:40;10.00;99.90
25839;DHT22;13669;50.186;27.062;2022-11-02T06:04:07;10.00;99.90
25839;DHT22;13669;50.186;27.062;2022-11-02T06:06:35;10.00;99.90
25839;DHT22;13669;50.186;27.062;2022-11-02T06:09:02;9.90;99.90
25839;DHT22;13669;50.186;27.062;2022-11-02T06:11:33;9.90;99.90
25839;DHT22;13669;50.186;27.062;2022-11-02T06:14:01;9.90;99.90
25839;DHT22;13669;50.186;27.062;2022-11-02T06:16:29;9.90;99.90
25839;DHT22;13669;50.186;27.062;2022-11-02T06:18:57;9.90;99.90
25839;DHT22;13669;50.186;27.062;2022-11-02T06:21:25;9.80;99.90
25839;DHT22;13669;50.186;27.062;2022-11-02T06:23:52;9.80;99.90
25839;DHT22;13669;50.186;27.062;2022-11-02T06:26:20;9.80;99.90
25839;DHT22;13669;50.186;27.062;2022-11-02T06:28:47;9.80;99.90
25839;DHT22;13669;50.186;27.062;2022-11-02T06:31:14;9.80;99.90
25839;DHT22;13669;50.186;27.062;2022-11-02T06:33:43;9.80;99.90
25839;DHT22;13669;50.186;27.062;2022-11-02T06:36:11;9.80;99.90
25839;DHT22;13669;50.186;27.062;2022-11-02T06:38:39;9.80;99.90
25839;DHT22;13669;50.186;27.062;2022-11-02T06:41:08;9.70;99.90
25839;DHT22;13669;50.186;27.062;2022-11-02T06:43:36;9.70;99.90
25839;DHT22;13669;50.186;27.062;2022-11-02T06:46:05;9.70;99.90
25839;DHT22;13669;50.186;27.062;2022-11-02T06:48:32;9.70;99.90
25839;DHT22;13669;50.186;27.062;2022-11-02T06:51:03;9.80;99.90
25839;DHT22;13669;50.186;27.062;2022-11-02T06:53:31;9.70;99.90
25839;DHT22;13669;50.186;27.062;2022-11-02T06:55:59;9.70;99.90
25839;DHT22;13669;50.186;27.062;2022-11-02T06:58:27;9.80;99.90
25839;DHT22;13669;50.186;27.062;2022-11-02T07:00:59;9.80;99.90
25839;DHT22;13669;50.186;27.062;2022-11-02T07:03:27;9.80;99.90
25839;DHT22;13669;50.186;27.062;2022-11-02T07:05:55;9.80;99.90
25839;DHT22;13669;50.186;27.062;2022-11-02T07:08:22;9.80;99.90
25839;DHT22;13669;50.186;27.062;2022-11-02T07:10:50;9.80;99.90
25839;DHT22;13669;50.186;27.062;2022-11-02T07:13:18;9.80;99.90
25839;DHT22;13669;50.186;27.062;2022-11-02T07:15:45;9.70;99.90
25839;DHT22;13669;50.186;27.062;2022-11-02T07:18:13;9.70;99.90
25839;DHT22;13669;50.186;27.062;2022-11-02T07:20:40;9.80;99.90
25839;DHT22;13669;50.186;27.062;2022-11-02T07:23:08;9.70;99.90
25839;DHT22;13669;50.186;27.062;2022-11-02T07:25:36;9.70;99.90
25839;DHT22;13669;50.186;27.062;2022-11-02T07:28:04;9.80;99.90
25839;DHT22;13669;50.186;27.062;2022-11-02T07:30:33;9.90;99.90
25839;DHT22;13669;50.186;27.062;2022-11-02T07:33:00;9.90;99.90
25839;DHT22;13669;50.186;27.062;2022-11-02T07:35:29;9.90;99.90
25839;DHT22;13669;50.186;27.062;2022-11-02T07:38:02;10.00;99.90
25839;DHT22;13669;50.186;27.062;2022-11-02T07:40:32;10.00;99.90
25839;DHT22;13669;50.186;27.062;2022-11-02T07:43:00;9.90;99.90
25839;DHT22;13669;50.186;27.062;2022-11-02T07:45:28;9.90;99.90
25839;DHT22;13669;50.186;27.062;2022-11-02T07:47:55;9.90;99.90
25839;DHT22;13669;50.186;27.062;2022-11-02T07:50:24;10.00;99.90
25839;DHT22;13669;50.186;27.062;2022-11-02T07:52:55;10.00;99.90
25839;DHT22;13669;50.186;27.062;2022-11-02T07:55:28;10.00;99.90
25839;DHT22;13669;50.186;27.062;2022-11-02T07:58:04;10.00;99.90
25839;DHT22;13669;50.186;27.062;2022-11-02T08:00:35;10.00;99.90
25839;DHT22;13669;50.186;27.062;2022-11-02T08:03:05;10.00;99.90
25839;DHT22;13669;50.186;27.062;2022-11-02T08:05:35;10.10;99.90
25839;DHT22;13669;50.186;27.062;2022-11-02T08:08:04;10.10;99.90
25839;DHT22;13669;50.186;27.062;2022-11-02T08:10:34;10.20;99.90
25839;DHT22;13669;50.186;27.062;2022-11-02T08:13:07;10.30;99.90
25839;DHT22;13669;50.186;27.062;2022-11-02T08:15:35;10.30;99.90
25839;DHT22;13669;50.186;27.062;2022-11-02T08:18:12;10.30;99.90
25839;DHT22;13669;50.186;27.062;2022-11-02T08:20:40;10.30;99.90
25839;DHT22;13669;50.186;27.062;2022-11-02T08:23:08;10.30;99.90
25839;DHT22;13669;50.186;27.062;2022-11-02T08:25:37;10.30;99.90
25839;DHT22;13669;50.186;27.062;2022-11-02T08:28:07;10.40;99.90
25839;DHT22;13669;50.186;27.062;2022-11-02T08:30:37;10.30;99.90
25839;DHT22;13669;50.186;27.062;2022-11-02T08:33:06;10.30;99.90
25839;DHT22;13669;50.186;27.062;2022-11-02T08:35:34;10.30;99.90
25839;DHT22;13669;50.186;27.062;2022-11-02T08:38:04;10.30;99.90
25839;DHT22;13669;50.186;27.062;2022-11-02T08:40:33;10.40;99.90
25839;DHT22;13669;50.186;27.062;2022-11-02T08:43:06;10.40;99.90
25839;DHT22;13669;50.186;27.062;2022-11-02T08:45:35;10.40;99.90
25839;DHT22;13669;50.186;27.062;2022-11-02T08:48:23;10.40;99.90
25839;DHT22;13669;50.186;27.062;2022-11-02T08:50:50;10.40;99.90
25839;DHT22;13669;50.186;27.062;2022-11-02T08:53:18;10.40;99.90
25839;DHT22;13669;50.186;27.062;2022-11-02T08:55:45;10.40;99.90
25839;DHT22;13669;50.186;27.062;2022-11-02T08:58:12;10.50;99.90
25839;DHT22;13669;50.186;27.062;2022-11-02T09:00:40;10.50;99.90
25839;DHT22;13669;50.186;27.062;2022-11-02T09:03:12;10.40;99.90
25839;DHT22;13669;50.186;27.062;2022-11-02T09:05:45;10.50;99.90
25839;DHT22;13669;50.186;27.062;2022-11-02T09:08:17;10.50;99.90
25839;DHT22;13669;50.186;27.062;2022-11-02T09:10:51;10.50;99.90
25839;DHT22;13669;50.186;27.062;2022-11-02T09:13:20;10.50;99.90
25839;DHT22;13669;50.186;27.062;2022-11-02T09:15:54;10.50;99.90
25839;DHT22;13669;50.186;27.062;2022-11-02T09:18:22;10.40;99.90
25839;DHT22;13669;50.186;27.062;2022-11-02T09:20:49;10.50;99.90
25839;DHT22;13669;50.186;27.062;2022-11-02T09:23:18;10.50;99.90
25839;DHT22;13669;50.186;27.062;2022-11-02T09:25:47;10.60;99.90
25839;DHT22;13669;50.186;27.062;2022-11-02T09:28:15;10.50;99.90
25839;DHT22;13669;50.186;27.062;2022-11-02T09:30:43;10.50;99.90
25839;DHT22;13669;50.186;27.062;2022-11-02T09:33:10;10.50;99.90
25839;DHT22;13669;50.186;27.062;2022-11-02T09:35:42;10.40;99.90
25839;DHT22;13669;50.186;27.062;2022-11-02T09:38:10;10.50;99.90
25839;DHT22;13669;50.186;27.062;2022-11-02T09:40:44;10.60;99.90
25839;DHT22;13669;50.186;27.062;2022-11-02T09:46:32;10.60;99.90
25839;DHT22;13669;50.186;27.062;2022-11-02T09:49:08;10.60;99.90
25839;DHT22;13669;50.186;27.062;2022-11-02T09:51:42;10.60;99.90
25839;DHT22;13669;50.186;27.062;2022-11-02T09:54:31;10.60;99.90
25839;DHT22;13669;50.186;27.062;2022-11-02T09:57:09;10.70;99.90
25839;DHT22;13669;50.186;27.062;2022-11-02T09:59:37;10.70;99.90
25839;DHT22;13669;50.186;27.062;2022-11-02T10:08:30;10.70;99.90
25839;DHT22;13669;50.186;27.062;2022-11-02T10:14:07;10.60;99.90
25839;DHT22;13669;50.186;27.062;2022-11-02T10:16:39;10.50;99.90
25839;DHT22;13669;50.186;27.062;2022-11-02T10:19:14;10.50;99.90
25839;DHT22;13669;50.186;27.062;2022-11-02T10:21:48;10.50;99.90
25839;DHT22;13669;50.186;27.062;2022-11-02T10:24:42;10.50;99.90
25839;DHT22;13669;50.186;27.062;2022-11-02T10:27:28;10.50;99.90
25839;DHT22;13669;50.186;27.062;2022-11-02T10:30:00;10.40;99.90
25839;DHT22;13669;50.186;27.062;2022-11-02T10:32:31;10.40;99.90
25839;DHT22;13669;50.186;27.062;2022-11-02T10:35:00;10.40;99.90
25839;DHT22;13669;50.186;27.062;2022-11-02T10:49:15;10.30;99.90
25839;DHT22;13669;50.186;27.062;2022-11-02T10:51:45;10.40;99.90
25839;DHT22;13669;50.186;27.062;2022-11-02T10:54:14;10.30;99.90
25839;DHT22;13669;50.186;27.062;2022-11-02T10:56:50;10.40;99.90
25839;DHT22;13669;50.186;27.062;2022-11-02T10:59:20;10.50;99.90
25839;DHT22;13669;50.186;27.062;2022-11-02T11:04:30;10.60;99.90
25839;DHT22;13669;50.186;27.062;2022-11-02T11:07:16;10.50;99.90
25839;DHT22;13669;50.186;27.062;2022-11-02T11:09:55;10.50;99.90
25839;DHT22;13669;50.186;27.062;2022-11-02T11:15:00;10.40;99.90
25839;DHT22;13669;50.186;27.062;2022-11-02T11:17:48;10.40;99.90
25839;DHT22;13669;50.186;27.062;2022-11-02T11:20:38;10.50;99.90
25839;DHT22;13669;50.186;27.062;2022-11-02T11:23:21;10.60;99.90
25839;DHT22;13669;50.186;27.062;2022-11-02T11:26:29;10.60;99.90
25839;DHT22;13669;50.186;27.062;2022-11-02T11:28:57;10.50;99.90
25839;DHT22;13669;50.186;27.062;2022-11-02T11:31:25;10.50;99.90
25839;DHT22;13669;50.186;27.062;2022-11-02T11:33:55;10.50;99.90
25839;DHT22;13669;50.186;27.062;2022-11-02T11:39:25;10.60;99.90
25839;DHT22;13669;50.186;27.062;2022-11-02T11:41:53;10.70;99.90
25839;DHT22;13669;50.186;27.062;2022-11-02T11:44:20;10.70;99.90
25839;DHT22;13669;50.186;27.062;2022-11-02T11:46:55;10.70;99.90
25839;DHT22;13669;50.186;27.062;2022-11-02T11:52:16;10.60;99.90
25839;DHT22;13669;50.186;27.062;2022-11-02T11:54:54;10.60;99.90
25839;DHT22;13669;50.186;27.062;2022-11-02T11:57:32;10.60;99.90
25839;DHT22;13669;50.186;27.062;2022-11-02T12:00:22;10.60;99.90
25839;DHT22;13669;50.186;27.062;2022-11-02T12:03:02;10.60;99.90
25839;DHT22;13669;50.186;27.062;2022-11-02T12:06:02;10.50;99.90
25839;DHT22;13669;50.186;27.062;2022-11-02T12:08:43;10.60;99.90
25839;DHT22;13669;50.186;27.062;2022-11-02T12:19:38;10.50;99.90
25839;DHT22;13669;50.186;27.062;2022-11-02T12:46:58;10.50;99.90
25839;DHT22;13669;50.186;27.062;2022-11-02T12:49:39;10.50;99.90
25839;DHT22;13669;50.186;27.062;2022-11-02T12:55:05;10.50;99.90
25839;DHT22;13669;50.186;27.062;2022-11-02T12:57:44;10.50;99.90
25839;DHT22;13669;50.186;27.062;2022-11-02T13:00:19;10.50;99.90
25839;DHT22;13669;50.186;27.062;2022-11-02T13:02:58;10.50;99.90
25839;DHT22;13669;50.186;27.062;2022-11-02T13:05:38;10.60;99.90
25839;DHT22;13669;50.186;27.062;2022-11-02T13:08:21;10.60;99.90
25839;DHT22;13669;50.186;27.062;2022-11-02T13:10:58;10.60;99.90
25839;DHT22;13669;50.186;27.062;2022-11-02T13:13:34;10.60;99.90
25839;DHT22;13669;50.186;27.062;2022-11-02T13:16:04;10.60;99.90
25839;DHT22;13669;50.186;27.062;2022-11-02T13:18:47;10.60;99.90
25839;DHT22;13669;50.186;27.062;2022-11-02T13:21:22;10.50;99.90
25839;DHT22;13669;50.186;27.062;2022-11-02T13:23:57;10.50;99.90
25839;DHT22;13669;50.186;27.062;2022-11-02T13:26:34;10.50;99.90
25839;DHT22;13669;50.186;27.062;2022-11-02T13:32:04;10.40;99.90
25839;DHT22;13669;50.186;27.062;2022-11-02T13:34:42;10.40;99.90
25839;DHT22;13669;50.186;27.062;2022-11-02T13:37:27;10.40;99.90
25839;DHT22;13669;50.186;27.062;2022-11-02T13:39:58;10.40;99.90
25839;DHT22;13669;50.186;27.062;2022-11-02T13:45:17;10.40;99.90
25839;DHT22;13669;50.186;27.062;2022-11-02T13:50:41;10.50;99.90
25839;DHT22;13669;50.186;27.062;2022-11-02T13:53:25;10.40;99.90
25839;DHT22;13669;50.186;27.062;2022-11-02T13:55:57;10.50;99.90
25839;DHT22;13669;50.186;27.062;2022-11-02T13:58:34;10.50;99.90
25839;DHT22;13669;50.186;27.062;2022-11-02T14:01:04;10.50;99.90
25839;DHT22;13669;50.186;27.062;2022-11-02T14:03:50;10.50;99.90
25839;DHT22;13669;50.186;27.062;2022-11-02T14:06:26;10.50;99.90
25839;DHT22;13669;50.186;27.062;2022-11-02T14:11:39;10.50;99.90
25839;DHT22;13669;50.186;27.062;2022-11-02T14:14:15;10.50;99.90
25839;DHT22;13669;50.186;27.062;2022-11-02T14:27:05;10.50;99.90
25839;DHT22;13669;50.186;27.062;2022-11-02T14:29:50;10.50;99.90
25839;DHT22;13669;50.186;27.062;2022-11-02T14:32:20;10.50;99.90
25839;DHT22;13669;50.186;27.062;2022-11-02T14:46:41;10.50;99.90
25839;DHT22;13669;50.186;27.062;2022-11-02T14:52:02;10.40;99.90
25839;DHT22;13669;50.186;27.062;2022-11-02T14:54:47;10.40;99.90
25839;DHT22;13669;50.186;27.062;2022-11-02T14:57:35;10.40;99.90
25839;DHT22;13669;50.186;27.062;2022-11-02T15:00:17;10.40;99.90
25839;DHT22;13669;50.186;27.062;2022-11-02T15:02:45;10.40;99.90
25839;DHT22;13669;50.186;27.062;2022-11-02T15:05:28;10.50;99.90
25839;DHT22;13669;50.186;27.062;2022-11-02T15:08:08;10.50;99.90
25839;DHT22;13669;50.186;27.062;2022-11-02T15:10:45;10.50;99.90
25839;DHT22;13669;50.186;27.062;2022-11-02T15:24:10;10.40;99.90
25839;DHT22;13669;50.186;27.062;2022-11-02T15:26:58;10.50;99.90
25839;DHT22;13669;50.186;27.062;2022-11-02T15:29:40;10.50;99.90
25839;DHT22;13669;50.186;27.062;2022-11-02T15:32:16;10.50;99.90
25839;DHT22;13669;50.186;27.062;2022-11-02T15:34:50;10.50;99.90
25839;DHT22;13669;50.186;27.062;2022-11-02T15:37:28;10.50;99.90
25839;DHT22;13669;50.186;27.062;2022-11-02T15:39:58;10.50;99.90
25839;DHT22;13669;50.186;27.062;2022-11-02T15:45:19;10.40;99.90
25839;DHT22;13669;50.186;27.062;2022-11-02T15:48:19;10.50;99.90
25839;DHT22;13669;50.186;27.062;2022-11-02T15:51:08;10.50;99.90
25839;DHT22;13669;50.186;27.062;2022-11-02T15:53:40;10.50;99.90
25839;DHT22;13669;50.186;27.062;2022-11-02T16:01:41;10.60;99.90
25839;DHT22;13669;50.186;27.062;2022-11-02T16:04:19;10.50;99.90
25839;DHT22;13669;50.186;27.062;2022-11-02T16:06:48;10.60;99.90
25839;DHT22;13669;50.186;27.062;2022-11-02T16:09:34;10.60;99.90
25839;DHT22;13669;50.186;27.062;2022-11-02T16:12:14;10.60;99.90
25839;DHT22;13669;50.186;27.062;2022-11-02T16:14:56;10.60;99.90
25839;DHT22;13669;50.186;27.062;2022-11-02T16:17:29;10.60;99.90
25839;DHT22;13669;50.186;27.062;2022-11-02T16:20:35;10.60;99.90
25839;DHT22;13669;50.186;27.062;2022-11-02T16:23:05;10.60;99.90
25839;DHT22;13669;50.186;27.062;2022-11-02T16:25:39;10.60;99.90
25839;DHT22;13669;50.186;27.062;2022-11-02T16:28:27;10.60;99.90
25839;DHT22;13669;50.186;27.062;2022-11-02T16:31:15;10.60;99.90
25839;DHT22;13669;50.186;27.062;2022-11-02T16:33:53;10.60;99.90
25839;DHT22;13669;50.186;27.062;2022-11-02T16:36:34;10.60;99.90
25839;DHT22;13669;50.186;27.062;2022-11-02T16:41:39;10.60;99.90
25839;DHT22;13669;50.186;27.062;2022-11-02T16:44:15;10.60;99.90
25839;DHT22;13669;50.186;27.062;2022-11-02T16:54:43;10.60;99.90
25839;DHT22;13669;50.186;27.062;2022-11-02T16:57:12;10.60;99.90
25839;DHT22;13669;50.186;27.062;2022-11-02T17:02:39;10.60;99.90
25839;DHT22;13669;50.186;27.062;2022-11-02T17:05:33;10.50;99.90
25839;DHT22;13669;50.186;27.062;2022-11-02T17:08:04;10.50;99.90
25839;DHT22;13669;50.186;27.062;2022-11-02T17:10:36;10.50;99.90
25839;DHT22;13669;50.186;27.062;2022-11-02T17:13:10;10.50;99.90
25839;DHT22;13669;50.186;27.062;2022-11-02T17:15:48;10.60;99.90
25839;DHT22;13669;50.186;27.062;2022-11-02T17:23:42;10.60;99.90
25839;DHT22;13669;50.186;27.062;2022-11-02T17:28:59;10.60;99.90
25839;DHT22;13669;50.186;27.062;2022-11-02T17:31:28;10.60;99.90
25839;DHT22;13669;50.186;27.062;2022-11-02T17:34:06;10.60;99.90
25839;DHT22;13669;50.186;27.062;2022-11-02T17:36:44;10.70;99.90
25839;DHT22;13669;50.186;27.062;2022-11-02T17:39:14;10.60;99.90
25839;DHT22;13669;50.186;27.062;2022-11-02T17:41:55;10.60;99.90
25839;DHT22;13669;50.186;27.062;2022-11-02T17:44:42;10.70;99.90
25839;DHT22;13669;50.186;27.062;2022-11-02T17:47:13;10.70;99.90
25839;DHT22;13669;50.186;27.062;2022-11-02T17:49:41;10.70;99.90
25839;DHT22;13669;50.186;27.062;2022-11-02T17:52:12;10.70;99.90
25839;DHT22;13669;50.186;27.062;2022-11-02T17:54:39;10.70;99.90
25839;DHT22;13669;50.186;27.062;2022-11-02T17:57:13;10.70;99.90
25839;DHT22;13669;50.186;27.062;2022-11-02T17:59:41;10.70;99.90
25839;DHT22;13669;50.186;27.062;2022-11-02T18:02:13;10.70;99.90
25839;DHT22;13669;50.186;27.062;2022-11-02T18:04:41;10.70;99.90
25839;DHT22;13669;50.186;27.062;2022-11-02T18:07:09;10.70;99.90
25839;DHT22;13669;50.186;27.062;2022-11-02T18:09:38;10.70;99.90
25839;DHT22;13669;50.186;27.062;2022-11-02T18:12:10;10.70;99.90
25839;DHT22;13669;50.186;27.062;2022-11-02T18:14:38;10.70;99.90
25839;DHT22;13669;50.186;27.062;2022-11-02T18:17:07;10.70;99.90
25839;DHT22;13669;50.186;27.062;2022-11-02T18:19:34;10.60;99.90
25839;DHT22;13669;50.186;27.062;2022-11-02T18:22:02;10.60;99.90
25839;DHT22;13669;50.186;27.062;2022-11-02T18:24:29;10.60;99.90
25839;DHT22;13669;50.186;27.062;2022-11-02T18:26:56;10.60;99.90
25839;DHT22;13669;50.186;27.062;2022-11-02T18:29:24;10.60;99.90
25839;DHT22;13669;50.186;27.062;2022-11-02T18:31:51;10.70;99.90
25839;DHT22;13669;50.186;27.062;2022-11-02T18:34:19;10.70;99.90
25839;DHT22;13669;50.186;27.062;2022-11-02T18:36:47;10.70;99.90
25839;DHT22;13669;50.186;27.062;2022-11-02T18:39:15;10.70;99.90
25839;DHT22;13669;50.186;27.062;2022-11-02T18:41:42;10.70;99.90
25839;DHT22;13669;50.186;27.062;2022-11-02T18:44:09;10.70;99.90
25839;DHT22;13669;50.186;27.062;2022-11-02T18:46:41;10.70;99.90
25839;DHT22;13669;50.186;27.062;2022-11-02T18:49:09;10.80;99.90